Time;durP1;ratioP1;P1;durP2;ratioP2;P2;SDS_P1;SDS_P2;PMS_P1;PMS_P2;Temp;Humidity;BMP_temperature;BMP_pressure;BME280_temperature;BME280_humidity;BME280_pressure;Samples;Min_cycle;Max_cycle;Signal;HPM_P1;HPM_P2
2023/02/11 00:00:01;;;;;;;35.78;26.23;;;;;;;;;;5053985;28;20377;-86
2023/02/11 00:02:28;;;;;;;35.50;26.10;;;;;;;;;;5053819;28;20496;-86
2023/02/11 00:04:54;;;;;;;33.50;25.10;;;;;;;;;;5053592;28;20408;-86
2023/02/11 00:07:20;;;;;;;35.38;25.13;;;;;;;;;;5053472;28;20390;-85
2023/02/11 00:09:46;;;;;;;32.60;24.95;;;;;;;;;;5053398;28;20431;-87
2023/02/11 00:12:12;;;;;;;32.77;25.63;;;;;;;;;;5035842;28;20756;-87
2023/02/11 00:14:38;;;;;;;31.60;25.23;;;;;;;;;;5052924;28;20382;-86
2023/02/11 00:17:04;;;;;;;33.70;25.17;;;;;;;;;;5053371;28;20431;-86
2023/02/11 00:19:30;;;;;;;33.80;25.58;;;;;;;;;;5053481;28;20370;-86
2023/02/11 00:21:56;;;;;;;32.85;24.33;;;;;;;;;;5035354;28;20377;-85
2023/02/11 00:24:22;;;;;;;35.90;25.52;;;;;;;;;;5053458;28;20382;-86
2023/02/11 00:26:48;;;;;;;33.60;24.87;;;;;;;;;;5051901;28;20851;-85
2023/02/11 00:29:14;;;;;;;34.25;25.00;;;;;;;;;;5036107;28;20397;-86
2023/02/11 00:31:43;;;;;;;31.02;24.50;;;;;;;;;;5055188;28;20500;-86
2023/02/11 00:34:09;;;;;;;33.60;25.55;;;;;;;;;;5034642;28;20774;-85
2023/02/11 00:36:36;;;;;;;34.17;25.33;;;;;;;;;;5053465;28;20378;-84
2023/02/11 00:39:02;;;;;;;33.60;24.73;;;;;;;;;;5053043;28;20434;-85
2023/02/11 00:41:28;;;;;;;33.70;25.13;;;;;;;;;;5035606;28;20412;-85
2023/02/11 00:43:54;;;;;;;32.10;25.13;;;;;;;;;;5053014;28;20418;-85
2023/02/11 00:46:20;;;;;;;32.33;25.08;;;;;;;;;;5052946;28;20412;-84
2023/02/11 00:48:46;;;;;;;31.00;23.77;;;;;;;;;;5052715;28;20385;-85
2023/02/11 00:51:12;;;;;;;31.35;24.70;;;;;;;;;;5052749;28;20382;-85
2023/02/11 00:53:38;;;;;;;33.70;24.30;;;;;;;;;;5052540;28;20405;-85
2023/02/11 00:56:04;;;;;;;31.50;24.52;;;;;;;;;;5052713;28;20870;-85
2023/02/11 00:58:30;;;;;;;36.72;26.23;;;;;;;;;;5053156;28;20389;-85
2023/02/11 01:00:56;;;;;;;34.22;24.92;;;;;;;;;;5053367;28;20862;-86
2023/02/11 01:03:22;;;;;;;36.33;26.00;;;;;;;;;;5052954;28;20460;-86
2023/02/11 01:05:48;;;;;;;32.70;25.58;;;;;;;;;;5053101;28;20381;-85
2023/02/11 01:08:14;;;;;;;33.30;24.45;;;;;;;;;;5035302;28;20393;-85
2023/02/11 01:10:40;;;;;;;32.17;24.10;;;;;;;;;;5053012;28;20908;-84
2023/02/11 01:13:06;;;;;;;31.63;24.17;;;;;;;;;;5052588;28;20409;-85
2023/02/11 01:15:33;;;;;;;34.35;24.98;;;;;;;;;;5034862;28;20425;-85
2023/02/11 01:17:59;;;;;;;34.17;25.02;;;;;;;;;;5053387;28;20452;-85
2023/02/11 01:20:25;;;;;;;32.63;24.67;;;;;;;;;;5053112;28;20411;-86
2023/02/11 01:22:51;;;;;;;32.08;24.50;;;;;;;;;;5052889;28;20384;-85
2023/02/11 01:25:18;;;;;;;33.25;26.25;;;;;;;;;;5052939;28;20420;-85
2023/02/11 01:27:43;;;;;;;45.28;34.33;;;;;;;;;;5051288;28;20381;-85
2023/02/11 01:30:11;;;;;;;41.63;31.17;;;;;;;;;;5032972;28;20447;-87
2023/02/11 01:32:37;;;;;;;43.17;30.35;;;;;;;;;;5037140;28;20548;-86
2023/02/11 01:35:03;;;;;;;42.17;29.55;;;;;;;;;;5031499;28;20417;-85
2023/02/11 01:37:32;;;;;;;34.55;25.38;;;;;;;;;;5044645;28;20374;-85
2023/02/11 01:39:58;;;;;;;35.38;25.65;;;;;;;;;;5024219;28;20523;-86
2023/02/11 01:42:24;;;;;;;32.92;25.20;;;;;;;;;;5039112;28;20463;-85
2023/02/11 01:44:50;;;;;;;33.63;24.35;;;;;;;;;;5035411;28;20379;-86
2023/02/11 01:47:17;;;;;;;34.47;25.65;;;;;;;;;;5043047;28;21008;-85
2023/02/11 01:49:49;;;;;;;33.20;24.40;;;;;;;;;;5051157;28;20387;-86
2023/02/11 01:52:21;;;;;;;32.17;24.35;;;;;;;;;;5019606;28;20406;-86
2023/02/11 01:57:36;;;;;;;33.58;24.08;;;;;;;;;;5055420;28;20377;-86
2023/02/11 02:00:09;;;;;;;33.08;24.98;;;;;;;;;;5055114;28;20889;-86
2023/02/11 02:02:35;;;;;;;30.03;23.97;;;;;;;;;;5055385;28;20388;-87
2023/02/11 02:05:20;;;;;;;31.20;23.33;;;;;;;;;;5056174;28;20395;-86
2023/02/11 02:07:54;;;;;;;29.15;23.50;;;;;;;;;;5055580;28;20393;-86
2023/02/11 02:10:22;;;;;;;30.90;23.70;;;;;;;;;;5038187;28;20374;-86
2023/02/11 02:12:48;;;;;;;29.27;22.73;;;;;;;;;;5055890;28;20427;-86
2023/02/11 02:15:17;;;;;;;30.60;24.03;;;;;;;;;;5055850;28;20450;-85
2023/02/11 02:17:48;;;;;;;31.77;23.67;;;;;;;;;;5055787;28;20400;-85
2023/02/11 02:20:30;;;;;;;29.88;23.50;;;;;;;;;;5037821;28;20440;-86
2023/02/11 02:23:06;;;;;;;29.38;23.17;;;;;;;;;;5054985;28;20466;-86
2023/02/11 02:25:41;;;;;;;30.35;23.58;;;;;;;;;;5042580;28;20854;-86
2023/02/11 02:28:11;;;;;;;30.47;23.00;;;;;;;;;;5055394;28;20517;-85
2023/02/11 02:30:46;;;;;;;28.85;22.55;;;;;;;;;;5054922;28;20994;-86
2023/02/11 02:33:15;;;;;;;32.10;23.98;;;;;;;;;;5055061;28;20810;-87
2023/02/11 02:36:00;;;;;;;30.15;23.60;;;;;;;;;;5055014;28;20377;-84
2023/02/11 02:38:32;;;;;;;30.70;23.42;;;;;;;;;;5057598;28;20370;-87
2023/02/11 02:41:09;;;;;;;31.40;23.80;;;;;;;;;;5054905;28;20381;-86
2023/02/11 02:43:36;;;;;;;32.72;23.55;;;;;;;;;;5054907;28;20389;-87
2023/02/11 02:46:20;;;;;;;33.47;24.38;;;;;;;;;;5054873;28;20385;-86
2023/02/11 02:48:48;;;;;;;31.25;23.65;;;;;;;;;;5054007;28;20384;-86
2023/02/11 02:51:33;;;;;;;34.58;24.27;;;;;;;;;;5037193;28;20783;-86
2023/02/11 02:54:14;;;;;;;32.28;24.48;;;;;;;;;;5054458;28;20415;-85
2023/02/11 02:56:43;;;;;;;31.52;24.42;;;;;;;;;;5056060;28;20448;-86
2023/02/11 02:59:28;;;;;;;30.90;24.30;;;;;;;;;;5057304;28;20464;-85
2023/02/11 03:02:12;;;;;;;32.30;24.40;;;;;;;;;;5059248;28;20383;-84
2023/02/11 03:04:58;;;;;;;29.50;23.83;;;;;;;;;;5067563;28;20416;-86
2023/02/11 03:07:25;;;;;;;32.40;23.70;;;;;;;;;;5058830;28;20411;-85
2023/02/11 03:09:54;;;;;;;31.17;23.60;;;;;;;;;;5058186;28;20381;-86
2023/02/11 03:12:21;;;;;;;29.67;22.90;;;;;;;;;;5038861;28;20404;-85
2023/02/11 03:14:49;;;;;;;31.30;23.17;;;;;;;;;;5055419;28;20374;-85
2023/02/11 03:17:16;;;;;;;29.83;23.02;;;;;;;;;;5053818;28;20881;-85
2023/02/11 03:19:43;;;;;;;29.92;23.80;;;;;;;;;;5047791;28;20389;-85
2023/02/11 03:22:24;;;;;;;31.77;24.10;;;;;;;;;;5031131;28;20859;-85
2023/02/11 03:24:50;;;;;;;30.58;23.50;;;;;;;;;;5052699;28;20472;-86
2023/02/11 03:27:32;;;;;;;30.20;23.23;;;;;;;;;;5052820;28;20373;-86
2023/02/11 03:30:01;;;;;;;31.85;24.48;;;;;;;;;;5035746;28;20938;-85
2023/02/11 03:32:28;;;;;;;30.95;23.48;;;;;;;;;;5054168;28;20417;-86
2023/02/11 03:35:01;;;;;;;32.15;24.23;;;;;;;;;;5053318;28;20382;-85
2023/02/11 03:37:30;;;;;;;30.35;23.38;;;;;;;;;;5054124;28;20380;-85
2023/02/11 03:39:59;;;;;;;32.83;24.23;;;;;;;;;;5053917;28;20396;-85
2023/02/11 03:42:27;;;;;;;30.98;23.45;;;;;;;;;;5056194;28;20378;-85
2023/02/11 03:44:57;;;;;;;32.60;23.52;;;;;;;;;;5054792;28;20374;-85
2023/02/11 03:47:25;;;;;;;32.33;23.48;;;;;;;;;;5035727;28;20751;-85
2023/02/11 03:49:52;;;;;;;29.90;23.52;;;;;;;;;;5053613;28;20390;-85
2023/02/11 03:52:19;;;;;;;30.45;23.85;;;;;;;;;;5053407;28;20409;-85
2023/02/11 03:54:48;;;;;;;30.20;23.17;;;;;;;;;;5035480;28;20381;-85
2023/02/11 03:57:14;;;;;;;33.43;24.67;;;;;;;;;;5053286;28;20377;-85
2023/02/11 03:59:52;;;;;;;31.00;24.15;;;;;;;;;;5052874;28;20456;-85
2023/02/11 04:02:19;;;;;;;30.70;23.02;;;;;;;;;;5035560;28;20394;-85
2023/02/11 04:04:46;;;;;;;30.98;23.38;;;;;;;;;;5052866;28;20405;-85
2023/02/11 04:07:12;;;;;;;31.23;23.37;;;;;;;;;;5053032;28;20461;-85
2023/02/11 04:09:38;;;;;;;33.28;24.23;;;;;;;;;;5053476;28;20735;-85
2023/02/11 04:12:04;;;;;;;30.55;23.73;;;;;;;;;;5053339;28;20465;-85
2023/02/11 04:14:30;;;;;;;33.53;24.13;;;;;;;;;;5053255;28;20377;-84
2023/02/11 04:16:56;;;;;;;30.90;23.85;;;;;;;;;;5053259;28;20377;-85
2023/02/11 04:19:22;;;;;;;30.92;23.83;;;;;;;;;;5053262;28;20385;-85
2023/02/11 04:21:48;;;;;;;30.83;23.70;;;;;;;;;;5053075;28;20386;-85
2023/02/11 04:24:14;;;;;;;33.08;23.63;;;;;;;;;;5052589;28;20385;-85
2023/02/11 04:26:40;;;;;;;32.40;24.48;;;;;;;;;;5035276;28;20420;-85
2023/02/11 04:29:06;;;;;;;33.20;25.02;;;;;;;;;;5052813;28;20832;-85
2023/02/11 04:31:32;;;;;;;33.75;23.75;;;;;;;;;;5052742;28;20468;-85
2023/02/11 04:33:58;;;;;;;30.65;23.65;;;;;;;;;;5028496;28;20415;-84
2023/02/11 04:36:24;;;;;;;31.48;23.42;;;;;;;;;;5037986;28;20383;-84
2023/02/11 04:38:50;;;;;;;29.95;22.75;;;;;;;;;;5047492;28;20889;-84
2023/02/11 04:41:16;;;;;;;30.83;23.50;;;;;;;;;;5052995;28;20388;-84
2023/02/11 04:43:42;;;;;;;31.27;23.27;;;;;;;;;;5035182;28;20945;-84
2023/02/11 04:46:08;;;;;;;31.73;24.10;;;;;;;;;;5035316;28;20385;-84
2023/02/11 04:48:34;;;;;;;31.15;23.88;;;;;;;;;;5053016;28;20388;-84
2023/02/11 04:51:01;;;;;;;32.58;23.75;;;;;;;;;;5053110;28;20377;-84
2023/02/11 04:53:27;;;;;;;31.55;23.80;;;;;;;;;;5052905;28;20405;-84
2023/02/11 04:55:53;;;;;;;31.13;24.13;;;;;;;;;;5052384;28;20382;-84
2023/02/11 04:58:19;;;;;;;31.30;23.75;;;;;;;;;;5034559;28;20382;-83
2023/02/11 05:00:45;;;;;;;33.05;23.98;;;;;;;;;;5052096;28;20389;-84
2023/02/11 05:03:11;;;;;;;32.67;23.30;;;;;;;;;;5052624;28;20924;-83
2023/02/11 05:05:40;;;;;;;33.10;23.83;;;;;;;;;;5052587;28;20400;-83
2023/02/11 05:08:07;;;;;;;33.55;24.55;;;;;;;;;;5052816;28;20464;-83
2023/02/11 05:10:33;;;;;;;31.80;23.57;;;;;;;;;;5053149;28;20385;-83
2023/02/11 05:12:59;;;;;;;31.58;24.25;;;;;;;;;;5054941;28;20464;-83
2023/02/11 05:15:25;;;;;;;31.52;24.25;;;;;;;;;;5056913;28;20858;-84
2023/02/11 05:17:51;;;;;;;31.17;24.70;;;;;;;;;;5039229;28;20380;-84
2023/02/11 05:20:17;;;;;;;31.65;24.27;;;;;;;;;;5056778;28;20377;-84
2023/02/11 05:22:43;;;;;;;31.33;24.48;;;;;;;;;;5038394;28;20481;-84
2023/02/11 05:25:09;;;;;;;30.90;23.70;;;;;;;;;;5056296;28;20393;-84
2023/02/11 05:27:35;;;;;;;32.08;24.33;;;;;;;;;;5056202;28;20377;-84
2023/02/11 05:30:01;;;;;;;30.13;23.55;;;;;;;;;;5038130;28;20898;-84
2023/02/11 05:32:28;;;;;;;32.10;24.00;;;;;;;;;;5056132;28;20409;-83
2023/02/11 05:34:53;;;;;;;31.40;23.75;;;;;;;;;;5055687;28;20477;-84
2023/02/11 05:37:20;;;;;;;30.90;24.02;;;;;;;;;;5053452;28;20456;-84
2023/02/11 05:39:46;;;;;;;31.65;23.98;;;;;;;;;;5036834;28;20382;-84
2023/02/11 05:42:12;;;;;;;31.73;24.05;;;;;;;;;;5037732;28;20377;-86
2023/02/11 05:44:38;;;;;;;32.13;24.33;;;;;;;;;;5054847;28;20405;-85
2023/02/11 05:47:07;;;;;;;32.93;24.27;;;;;;;;;;5055248;28;20425;-85
2023/02/11 05:49:33;;;;;;;30.65;24.00;;;;;;;;;;5055707;28;20385;-84
2023/02/11 05:51:59;;;;;;;30.88;24.25;;;;;;;;;;5056017;28;20378;-85
2023/02/11 05:54:25;;;;;;;31.30;24.17;;;;;;;;;;5055560;28;20381;-84
2023/02/11 05:56:51;;;;;;;31.20;23.90;;;;;;;;;;5056649;28;20930;-85
2023/02/11 05:59:17;;;;;;;31.10;23.65;;;;;;;;;;5039002;28;20393;-86
2023/02/11 06:01:43;;;;;;;32.60;24.20;;;;;;;;;;5038495;28;20398;-85
2023/02/11 06:04:09;;;;;;;32.70;24.07;;;;;;;;;;5056056;28;20388;-85
2023/02/11 06:06:35;;;;;;;35.30;24.95;;;;;;;;;;5037787;28;20496;-84
2023/02/11 06:09:01;;;;;;;32.43;24.03;;;;;;;;;;5055996;28;20409;-85
2023/02/11 06:11:27;;;;;;;30.42;24.52;;;;;;;;;;5057033;28;20735;-84
2023/02/11 06:13:53;;;;;;;32.42;24.50;;;;;;;;;;5056458;28;20409;-85
2023/02/11 06:16:19;;;;;;;34.25;25.02;;;;;;;;;;5037130;28;20382;-85
2023/02/11 06:18:45;;;;;;;35.90;25.77;;;;;;;;;;5055568;28;20385;-85
2023/02/11 06:21:11;;;;;;;36.53;25.48;;;;;;;;;;5056128;28;20746;-85
2023/02/11 06:23:37;;;;;;;33.78;25.05;;;;;;;;;;5057630;28;20381;-85
2023/02/11 06:26:04;;;;;;;35.25;25.05;;;;;;;;;;5059025;28;20445;-84
2023/02/11 06:28:31;;;;;;;37.83;26.45;;;;;;;;;;5045851;28;20434;-85
2023/02/11 06:30:57;;;;;;;33.05;23.90;;;;;;;;;;5044362;28;20419;-83
2023/02/11 06:33:26;;;;;;;34.90;24.70;;;;;;;;;;5039425;28;20446;-86
2023/02/11 06:35:52;;;;;;;30.93;23.50;;;;;;;;;;5039997;28;20521;-85
2023/02/11 06:38:18;;;;;;;35.50;26.75;;;;;;;;;;5039853;28;20965;-85
2023/02/11 06:40:48;;;;;;;34.40;25.57;;;;;;;;;;5038509;28;20406;-83
2023/02/11 06:43:14;;;;;;;38.15;25.67;;;;;;;;;;5038601;28;20464;-83
2023/02/11 06:45:40;;;;;;;33.55;24.65;;;;;;;;;;5034389;28;20390;-81
2023/02/11 06:48:06;;;;;;;34.72;25.52;;;;;;;;;;5017900;28;20399;-83
2023/02/11 06:50:32;;;;;;;36.28;26.10;;;;;;;;;;5038974;28;20383;-85
2023/02/11 06:52:58;;;;;;;39.03;27.65;;;;;;;;;;5054491;28;20773;-82
2023/02/11 06:55:25;;;;;;;43.50;29.85;;;;;;;;;;5057444;28;20378;-82
2023/02/11 06:57:51;;;;;;;41.43;28.80;;;;;;;;;;5058045;28;20389;-83
2023/02/11 07:00:17;;;;;;;37.35;25.75;;;;;;;;;;5059233;28;20871;-83
2023/02/11 07:02:43;;;;;;;38.20;25.85;;;;;;;;;;5059002;28;20473;-83
2023/02/11 07:05:09;;;;;;;36.97;26.48;;;;;;;;;;5060131;28;20397;-83
2023/02/11 07:07:35;;;;;;;38.70;26.75;;;;;;;;;;5059123;28;20395;-83
2023/02/11 07:10:05;;;;;;;35.67;26.40;;;;;;;;;;5040586;28;20390;-83
2023/02/11 07:12:31;;;;;;;34.92;25.85;;;;;;;;;;5058893;28;20405;-83
2023/02/11 07:14:57;;;;;;;39.63;27.73;;;;;;;;;;5039866;28;20390;-84
2023/02/11 07:17:23;;;;;;;37.20;25.95;;;;;;;;;;5059518;28;20434;-83
2023/02/11 07:19:49;;;;;;;37.00;26.85;;;;;;;;;;5059689;28;20381;-82
2023/02/11 07:22:15;;;;;;;35.63;26.27;;;;;;;;;;5041038;28;20394;-82
2023/02/11 07:24:41;;;;;;;34.90;26.55;;;;;;;;;;5055722;28;20457;-83
2023/02/11 07:27:07;;;;;;;35.97;26.02;;;;;;;;;;5057886;28;20384;-82
2023/02/11 07:29:33;;;;;;;37.70;27.33;;;;;;;;;;5055156;28;20381;-81
2023/02/11 07:31:59;;;;;;;37.77;27.37;;;;;;;;;;5036586;28;20453;-82
2023/02/11 07:34:25;;;;;;;39.55;27.85;;;;;;;;;;5029849;28;20415;-82
2023/02/11 07:36:51;;;;;;;36.07;27.17;;;;;;;;;;5028521;28;20803;-84
2023/02/11 07:39:19;;;;;;;35.83;27.45;;;;;;;;;;5035699;28;20443;-84
2023/02/11 07:41:46;;;;;;;38.45;28.02;;;;;;;;;;5034726;28;20379;-86
2023/02/11 07:44:13;;;;;;;41.13;29.98;;;;;;;;;;5032137;28;20847;-84
2023/02/11 07:46:41;;;;;;;40.50;30.42;;;;;;;;;;5015312;28;20821;-84
2023/02/11 07:49:08;;;;;;;40.50;29.92;;;;;;;;;;5020762;28;20431;-83
2023/02/11 07:51:34;;;;;;;42.13;29.50;;;;;;;;;;5019445;28;20399;-85
2023/02/11 07:54:00;;;;;;;40.55;28.58;;;;;;;;;;5038052;28;20472;-83
2023/02/11 07:56:27;;;;;;;37.85;28.55;;;;;;;;;;5032782;28;20385;-87
2023/02/11 07:58:53;;;;;;;40.00;28.65;;;;;;;;;;5032654;28;20419;-88
2023/02/11 08:01:25;;;;;;;41.05;28.85;;;;;;;;;;5032465;28;21068;-87
2023/02/11 08:03:52;;;;;;;41.70;30.08;;;;;;;;;;5047575;23;20438;-81
2023/02/11 08:06:19;;;;;;;40.08;29.08;;;;;;;;;;5011982;28;20978;-80
2023/02/11 08:08:46;;;;;;;39.35;28.77;;;;;;;;;;5031103;28;20398;-81
2023/02/11 08:11:20;;;;;;;36.03;27.80;;;;;;;;;;5031006;28;20865;-79
2023/02/11 08:13:46;;;;;;;39.58;29.05;;;;;;;;;;5036274;28;20997;-81
2023/02/11 08:16:19;;;;;;;41.95;30.48;;;;;;;;;;5051675;28;20897;-80
2023/02/11 08:18:46;;;;;;;41.08;30.30;;;;;;;;;;5051276;28;20381;-79
2023/02/11 08:21:11;;;;;;;38.95;29.20;;;;;;;;;;5051504;28;20386;-79
2023/02/11 08:23:38;;;;;;;40.45;30.55;;;;;;;;;;5051222;28;20481;-80
2023/02/11 08:26:05;;;;;;;41.95;30.15;;;;;;;;;;5051540;28;20381;-80
2023/02/11 08:28:31;;;;;;;49.33;33.67;;;;;;;;;;5051546;28;20393;-81
2023/02/11 08:30:57;;;;;;;43.75;32.65;;;;;;;;;;5051480;28;20392;-82
2023/02/11 08:33:23;;;;;;;43.63;32.38;;;;;;;;;;5052256;28;20496;-79
2023/02/11 08:35:49;;;;;;;46.40;34.30;;;;;;;;;;5050964;28;20468;-79
2023/02/11 08:38:15;;;;;;;45.67;33.92;;;;;;;;;;5049958;28;20390;-79
2023/02/11 08:40:41;;;;;;;42.35;32.78;;;;;;;;;;5051703;28;20460;-79
2023/02/11 08:43:07;;;;;;;51.40;36.80;;;;;;;;;;5055134;28;20397;-79
2023/02/11 08:45:33;;;;;;;54.28;38.17;;;;;;;;;;5059758;28;20413;-80
2023/02/11 08:48:00;;;;;;;56.10;39.55;;;;;;;;;;5046886;28;20428;-81
2023/02/11 08:50:27;;;;;;;55.83;38.70;;;;;;;;;;5045405;28;20399;-81
2023/02/11 08:52:53;;;;;;;53.92;38.88;;;;;;;;;;5050598;28;20405;-80
2023/02/11 08:55:19;;;;;;;52.25;38.10;;;;;;;;;;5052885;28;20389;-90
2023/02/11 08:57:45;;;;;;;54.17;37.10;;;;;;;;;;5042502;28;20406;-85
2023/02/11 09:00:11;;;;;;;50.00;35.42;;;;;;;;;;5040270;28;20399;-85
2023/02/11 09:02:37;;;;;;;49.65;36.75;;;;;;;;;;5047889;28;20386;-86
2023/02/11 09:05:03;;;;;;;55.03;38.33;;;;;;;;;;5051825;28;20432;-85
2023/02/11 09:07:29;;;;;;;59.70;40.67;;;;;;;;;;5049538;28;20393;-85
2023/02/11 09:09:55;;;;;;;57.37;39.93;;;;;;;;;;5049187;28;20396;-85
2023/02/11 09:12:21;;;;;;;59.70;39.97;;;;;;;;;;5050781;28;20416;-84
2023/02/11 09:14:47;;;;;;;53.43;37.67;;;;;;;;;;5051372;28;20473;-83
2023/02/11 09:17:13;;;;;;;56.15;38.95;;;;;;;;;;5050597;28;20393;-86
2023/02/11 09:19:39;;;;;;;51.17;36.97;;;;;;;;;;5049565;28;20470;-84
2023/02/11 09:22:05;;;;;;;49.58;35.58;;;;;;;;;;5051209;28;20827;-84
2023/02/11 09:24:31;;;;;;;50.47;35.13;;;;;;;;;;5051406;28;20447;-87
2023/02/11 09:26:57;;;;;;;46.97;34.70;;;;;;;;;;5050453;28;20447;-84
2023/02/11 09:29:23;;;;;;;47.90;34.53;;;;;;;;;;5049273;28;20381;-93
2023/02/11 09:31:49;;;;;;;50.88;36.15;;;;;;;;;;5049357;28;20456;-87
2023/02/11 09:34:15;;;;;;;44.83;34.53;;;;;;;;;;5032958;28;20463;-88
2023/02/11 09:36:41;;;;;;;47.05;35.58;;;;;;;;;;5047254;28;20869;-87
2023/02/11 09:39:10;;;;;;;49.60;36.17;;;;;;;;;;5048466;28;20385;-89
2023/02/11 09:41:36;;;;;;;50.80;34.85;;;;;;;;;;5049361;28;20429;-87
2023/02/11 09:44:05;;;;;;;48.92;36.80;;;;;;;;;;5034422;28;20391;-87
2023/02/11 09:46:32;;;;;;;53.33;38.08;;;;;;;;;;5042957;28;20413;-88
2023/02/11 09:48:59;;;;;;;54.13;38.05;;;;;;;;;;5058899;28;20389;-86
2023/02/11 09:52:00;;;;;;;56.92;39.72;;;;;;;;;;5066617;28;20390;-85
2023/02/11 09:54:45;;;;;;;59.08;41.78;;;;;;;;;;5020207;28;20575;-83
2023/02/11 09:57:11;;;;;;;58.75;41.70;;;;;;;;;;5088396;28;20433;-87
2023/02/11 09:59:37;;;;;;;57.63;41.75;;;;;;;;;;5078036;28;20408;-89
2023/02/11 10:02:16;;;;;;;50.55;37.90;;;;;;;;;;5060816;28;20405;-92
2023/02/11 10:04:45;;;;;;;58.85;40.90;;;;;;;;;;5042204;28;25106;-86
2023/02/11 10:07:24;;;;;;;54.67;40.13;;;;;;;;;;5055210;28;20466;-90
2023/02/11 10:09:56;;;;;;;52.85;38.53;;;;;;;;;;5055229;28;20742;-89
2023/02/11 10:12:32;;;;;;;52.88;38.00;;;;;;;;;;5055441;28;20412;-89
2023/02/11 10:15:16;;;;;;;47.90;36.45;;;;;;;;;;5160705;23;20442;-89
2023/02/11 10:17:43;;;;;;;47.08;36.58;;;;;;;;;;5039645;28;20393;-91
2023/02/11 10:20:19;;;;;;;48.33;37.42;;;;;;;;;;5042194;28;20379;-83
2023/02/11 10:22:48;;;;;;;63.47;44.55;;;;;;;;;;5068217;28;20424;-83
2023/02/11 10:25:20;;;;;;;48.13;36.83;;;;;;;;;;5037153;28;20440;-85
2023/02/11 10:27:46;;;;;;;48.05;37.08;;;;;;;;;;5054473;28;20485;-87
2023/02/11 10:30:21;;;;;;;47.75;36.08;;;;;;;;;;5054128;28;20394;-86
2023/02/11 10:33:00;;;;;;;50.67;37.17;;;;;;;;;;5046313;28;20476;-91
2023/02/11 10:35:26;;;;;;;48.90;37.00;;;;;;;;;;5039863;28;20371;-93
2023/02/11 10:37:54;;;;;;;45.78;35.80;;;;;;;;;;5056983;28;20434;-90
2023/02/11 10:40:22;;;;;;;44.70;35.28;;;;;;;;;;5052772;28;20705;-86
2023/02/11 10:43:09;;;;;;;51.40;36.75;;;;;;;;;;5044418;28;20391;-87
2023/02/11 10:45:37;;;;;;;46.33;34.78;;;;;;;;;;5046275;28;20374;-82
2023/02/11 10:48:07;;;;;;;46.22;34.95;;;;;;;;;;5053387;28;20418;-83
2023/02/11 10:50:35;;;;;;;44.20;34.38;;;;;;;;;;5054271;28;20397;-83
2023/02/11 10:53:13;;;;;;;47.40;35.17;;;;;;;;;;5053951;28;20394;-84
2023/02/11 10:55:48;;;;;;;46.90;35.97;;;;;;;;;;5054327;28;25086;-84
2023/02/11 10:58:22;;;;;;;50.00;37.03;;;;;;;;;;5038928;28;25109;-85
2023/02/11 11:00:51;;;;;;;51.92;37.33;;;;;;;;;;5044352;28;25151;-85
2023/02/11 11:03:22;;;;;;;50.05;37.45;;;;;;;;;;5054141;28;20801;-83
2023/02/11 11:05:51;;;;;;;45.90;35.67;;;;;;;;;;5053590;28;20478;-84
2023/02/11 11:08:17;;;;;;;46.00;36.92;;;;;;;;;;5054151;28;20743;-85
2023/02/11 11:10:48;;;;;;;43.13;34.58;;;;;;;;;;5053371;28;20382;-85
2023/02/11 11:13:34;;;;;;;49.47;35.40;;;;;;;;;;5038050;28;21315;-85
2023/02/11 11:16:06;;;;;;;40.30;32.83;;;;;;;;;;5012303;28;20417;-83
2023/02/11 11:18:32;;;;;;;43.60;32.83;;;;;;;;;;5013200;28;20387;-85
2023/02/11 11:21:03;;;;;;;41.75;32.60;;;;;;;;;;4995350;28;20385;-85
2023/02/11 11:23:30;;;;;;;40.13;31.50;;;;;;;;;;5031377;28;20383;-84
2023/02/11 11:26:04;;;;;;;41.22;32.15;;;;;;;;;;5033631;28;20379;-84
2023/02/11 11:28:39;;;;;;;45.10;33.33;;;;;;;;;;5033683;28;20382;-83
2023/02/11 11:31:11;;;;;;;38.90;31.73;;;;;;;;;;5033830;28;20374;-83
2023/02/11 11:33:41;;;;;;;40.80;31.77;;;;;;;;;;5015388;28;20418;-84
2023/02/11 11:36:12;;;;;;;38.00;31.23;;;;;;;;;;5015851;28;20422;-83
2023/02/11 11:38:51;;;;;;;38.67;30.65;;;;;;;;;;5025330;28;20405;-85
2023/02/11 11:41:23;;;;;;;40.40;31.63;;;;;;;;;;5013521;28;25109;-86
2023/02/11 11:43:54;;;;;;;41.88;32.65;;;;;;;;;;5013971;28;20412;-83
2023/02/11 11:46:24;;;;;;;39.37;32.03;;;;;;;;;;5013862;28;20427;-82
2023/02/11 11:48:51;;;;;;;39.13;31.67;;;;;;;;;;5016243;28;20438;-84
2023/02/11 11:51:17;;;;;;;40.55;32.22;;;;;;;;;;5033220;28;20379;-83
2023/02/11 11:53:45;;;;;;;39.10;31.02;;;;;;;;;;5025735;28;20420;-83
2023/02/11 11:56:16;;;;;;;42.00;32.17;;;;;;;;;;5022266;28;20855;-84
2023/02/11 11:58:42;;;;;;;42.47;31.90;;;;;;;;;;5009732;28;20394;-85
2023/02/11 12:01:37;;;;;;;38.95;31.92;;;;;;;;;;5017874;28;20483;-84
2023/02/11 12:04:06;;;;;;;39.83;31.57;;;;;;;;;;4996102;28;20563;-83
2023/02/11 12:06:52;;;;;;;36.55;31.67;;;;;;;;;;5032814;28;20421;-83
2023/02/11 12:09:39;;;;;;;40.45;31.10;;;;;;;;;;5002062;28;20377;-83
2023/02/11 12:12:10;;;;;;;43.00;32.15;;;;;;;;;;4973829;28;20393;-83
2023/02/11 12:14:39;;;;;;;42.92;32.22;;;;;;;;;;5026962;28;20411;-84
2023/02/11 12:17:26;;;;;;;37.55;30.05;;;;;;;;;;5050996;28;20388;-80
2023/02/11 12:20:12;;;;;;;37.03;29.45;;;;;;;;;;4994779;28;20461;-82
2023/02/11 12:22:38;;;;;;;37.33;28.88;;;;;;;;;;5045080;28;20379;-83
2023/02/11 12:25:25;;;;;;;39.00;30.92;;;;;;;;;;5046723;28;20739;-81
2023/02/11 12:27:53;;;;;;;37.75;30.17;;;;;;;;;;5050240;28;20382;-80
2023/02/11 12:30:25;;;;;;;40.65;30.92;;;;;;;;;;5039112;28;20785;-82
2023/02/11 12:33:18;;;;;;;43.33;31.27;;;;;;;;;;5043701;28;20828;-83
2023/02/11 12:35:52;;;;;;;40.80;31.70;;;;;;;;;;5039104;28;20381;-85
2023/02/11 12:38:26;;;;;;;35.25;28.90;;;;;;;;;;5052488;28;20362;-85
2023/02/11 12:41:02;;;;;;;38.75;30.20;;;;;;;;;;5052128;28;20467;-84
2023/02/11 12:43:28;;;;;;;34.83;28.20;;;;;;;;;;5051289;28;21021;-83
2023/02/11 12:46:01;;;;;;;37.25;28.48;;;;;;;;;;5052332;28;20479;-83
2023/02/11 12:48:36;;;;;;;37.85;28.92;;;;;;;;;;5044461;28;20374;-83
2023/02/11 12:51:13;;;;;;;38.80;30.90;;;;;;;;;;5039797;28;20462;-82
2023/02/11 12:53:52;;;;;;;39.35;30.33;;;;;;;;;;5036395;28;20481;-81
2023/02/11 12:56:18;;;;;;;39.67;30.30;;;;;;;;;;5038282;28;20379;-82
2023/02/11 12:58:49;;;;;;;36.23;28.63;;;;;;;;;;5037291;28;20507;-84
2023/02/11 13:01:20;;;;;;;36.85;28.58;;;;;;;;;;5051922;28;20376;-85
2023/02/11 13:04:12;;;;;;;39.60;30.08;;;;;;;;;;5034101;28;20910;-83
2023/02/11 13:06:41;;;;;;;38.58;29.80;;;;;;;;;;5041490;28;20395;-83
2023/02/11 13:09:11;;;;;;;36.72;28.40;;;;;;;;;;5046424;28;20503;-84
2023/02/11 13:11:39;;;;;;;28.33;21.67;;;;;;;;;;5040472;28;20924;-84
2023/02/11 13:14:08;;;;;;;25.48;21.08;;;;;;;;;;5049345;28;20929;-82
2023/02/11 13:16:44;;;;;;;22.38;19.23;;;;;;;;;;5044218;28;20447;-84
2023/02/11 13:19:17;;;;;;;21.55;18.08;;;;;;;;;;5043325;28;20962;-84
2023/02/11 13:21:56;;;;;;;24.75;19.52;;;;;;;;;;5033348;28;20413;-83
2023/02/11 13:24:26;;;;;;;20.90;17.25;;;;;;;;;;5031166;28;20371;-83
2023/02/11 13:26:52;;;;;;;19.30;15.80;;;;;;;;;;5034608;28;20383;-84
2023/02/11 13:29:23;;;;;;;18.13;14.40;;;;;;;;;;5035173;28;20403;-83
2023/02/11 13:32:06;;;;;;;15.38;13.13;;;;;;;;;;5027125;28;20404;-83
2023/02/11 13:34:42;;;;;;;12.68;11.30;;;;;;;;;;5053225;28;20403;-81
2023/02/11 13:37:26;;;;;;;14.67;12.30;;;;;;;;;;5069505;28;20388;-82
2023/02/11 13:40:15;;;;;;;13.75;12.25;;;;;;;;;;5051720;28;20401;-82
2023/02/11 13:42:49;;;;;;;12.15;10.88;;;;;;;;;;5044310;28;20382;-82
2023/02/11 13:45:38;;;;;;;13.98;12.40;;;;;;;;;;5056685;28;20434;-84
2023/02/11 13:48:05;;;;;;;17.38;14.10;;;;;;;;;;5043587;28;20401;-83
2023/02/11 13:50:39;;;;;;;15.27;13.73;;;;;;;;;;5052331;28;20462;-83
2023/02/11 13:53:07;;;;;;;18.77;15.83;;;;;;;;;;5055728;28;20537;-83
2023/02/11 13:55:33;;;;;;;21.80;17.40;;;;;;;;;;5038190;28;20404;-83
2023/02/11 13:58:20;;;;;;;21.48;17.77;;;;;;;;;;5055356;28;20385;-83
2023/02/11 14:00:47;;;;;;;19.70;17.50;;;;;;;;;;4997057;28;20422;-82
2023/02/11 14:08:57;;;;;;;21.60;18.10;;;;;;;;;;5055520;28;20404;-83
2023/02/11 14:11:25;;;;;;;21.08;18.05;;;;;;;;;;5055381;28;20381;-83
2023/02/11 14:13:51;;;;;;;22.88;18.80;;;;;;;;;;5054873;28;20413;-82
2023/02/11 14:16:21;;;;;;;22.00;18.30;;;;;;;;;;5055140;28;20799;-83
2023/02/11 14:18:47;;;;;;;22.38;19.02;;;;;;;;;;5055807;28;20445;-83
2023/02/11 14:21:19;;;;;;;20.63;18.27;;;;;;;;;;5054931;28;20377;-82
2023/02/11 14:23:46;;;;;;;20.63;18.13;;;;;;;;;;5055014;28;20415;-83
2023/02/11 14:26:21;;;;;;;21.00;18.15;;;;;;;;;;5055027;28;20386;-83
2023/02/11 14:28:50;;;;;;;21.60;17.95;;;;;;;;;;5055126;28;20385;-83
2023/02/11 14:31:24;;;;;;;24.07;19.43;;;;;;;;;;5054822;28;20509;-82
2023/02/11 14:34:00;;;;;;;26.65;20.88;;;;;;;;;;5054650;28;20408;-82
2023/02/11 14:36:45;;;;;;;24.88;19.65;;;;;;;;;;5054917;28;20392;-83